Flight Track Log - Related Links

Times and Time Zones

All times are in EDT time to prevent confusion due to time zone crossing. See the CHQ4761 flight status page for this flight to view local times or setup timezone preferences in your user account.

Time Position Orientation Groundspeed Altitude Reporting Facility
EDT Latitude Longitude Course Direction KTS MPH feet Rate Location/Type
Mon 07:29:23 PM 39.7000 -86.3000 83° East 149 171 1,300  Level Indianapolis TRACON
Mon 07:29:59 PM 39.6833 -86.3167 218° Southwest 164 189 3,000 2,800 Climbing Indianapolis TRACON
Mon 07:30:53 PM 39.6500 -86.3667 229° Southwest 219 252 5,500 1,565 Climbing Indianapolis TRACON
Mon 07:31:54 PM 39.6167 -86.3167 131° Southeast 281 323 6,000 1,620 Climbing Indianapolis TRACON
Mon 07:32:00 PM 39.7590 -85.9934 70° East  Level FlightAware Approximate
Mon 07:33:00 PM 39.7721 -85.8962 83° East  Level FlightAware Approximate
Mon 07:33:10 PM 39.5922 -86.2064 106° East 271 312 9,200  Level Indianapolis Center
Mon 07:34:00 PM 39.7819 -85.7975 83° East  Level FlightAware Approximate
Mon 07:34:12 PM 39.6189 -86.1014 72° East 307 353 11,500  Level Indianapolis Center
Mon 07:35:13 PM 39.6692 -85.9678 64° Northeast 342 394 13,900 1,902 Climbing Indianapolis Center
Mon 07:36:15 PM 39.7147 -85.8447 64° Northeast 372 428 15,400 1,452 Climbing Indianapolis Center
Mon 07:37:17 PM 39.7631 -85.7164 64° Northeast 392 451 16,900 1,452 Climbing Indianapolis Center
Mon 07:38:19 PM 39.8133 -85.5836 64° Northeast 406 467 18,400 1,463 Climbing Indianapolis Center
Mon 07:39:20 PM 39.8639 -85.4436 65° Northeast 423 487 19,900 1,268 Climbing Indianapolis Center
Mon 07:40:22 PM 39.9169 -85.3000 64° Northeast 436 502 21,000 532 Climbing Indianapolis Center
Mon 07:41:24 PM 39.9825 -85.1206 64° Northeast 454 522 21,000  Level Indianapolis Center
Mon 07:42:26 PM 40.0389 -84.9703 64° Northeast 459 528 21,000  Level Indianapolis Center
Mon 07:43:27 PM 40.0883 -84.8328 65° Northeast 459 528 21,000  Level Indianapolis Center
Mon 07:44:29 PM 40.1422 -84.6814 65° Northeast 459 528 21,000  Level Indianapolis Center
Mon 07:45:31 PM 40.2078 -84.5006 65° Northeast 459 528 21,000  Level Indianapolis Center
Mon 07:46:33 PM 40.2617 -84.3522 65° Northeast 456 525 21,000  Level Indianapolis Center
Mon 07:47:34 PM 40.3128 -84.2067 65° Northeast 447 514 21,000  Level Indianapolis Center
Mon 07:48:36 PM 40.3647 -84.0600 65° Northeast 445 512 21,000 -484 Level Indianapolis Center
Mon 07:49:38 PM 40.4150 -83.9147 66° East 442 509 20,000 -919 Descending Indianapolis Center
Mon 07:50:40 PM 40.4661 -83.7700 65° Northeast 440 506 19,100 -488 Descending Indianapolis Center
Mon 07:51:41 PM 40.5178 -83.6311 64° Northeast 429 494 19,000 -49 Descending Indianapolis Center
Mon 07:52:43 PM 40.5714 -83.4964 62° Northeast 421 484 19,000 -194 Level Indianapolis Center
Mon 07:53:45 PM 40.6306 -83.3392 64° Northeast 404 465 18,600 -871 Descending Indianapolis Center
Mon 07:54:47 PM 40.6806 -83.2108 63° Northeast 397 457 17,200 -1,415 Descending Indianapolis Center
Mon 07:55:48 PM 40.7267 -83.0869 64° Northeast 394 453 15,700 -1,463 Descending Indianapolis Center
Mon 07:56:50 PM 40.7756 -82.9567 64° Northeast 385 443 14,200 -1,463 Descending Indianapolis Center
Mon 07:57:51 PM 40.8203 -82.8378 64° Northeast 375 432 12,700 -1,366 Descending Indianapolis Center
Mon 07:58:53 PM 40.8650 -82.7186 64° Northeast 365 420 11,400 -1,258 Descending Indianapolis Center
Mon 07:59:55 PM 40.9147 -82.5856 64° Northeast 350 403 10,100 -743 Descending Indianapolis Center
Mon 08:00:46 PM 40.9664 -82.5133 47° Northeast 322 371 10,000 -87 Descending Cleveland Center
Mon 08:01:04 PM 40.9767 -82.4981 48° Northeast 325 374 10,000 -100 Level Cleveland Center
Mon 08:01:46 PM 41.0272 -82.4292 46° Northeast 318 366 9,900 -194 Descending Cleveland Center
Mon 08:02:06 PM 41.0381 -82.4111 51° Northeast 323 372 9,800 -1,377 Descending Cleveland Center
Mon 08:02:47 PM 41.0789 -82.3519 48° Northeast 277 319 8,500 -1,672 Descending Cleveland Center
Mon 08:03:07 PM 41.0992 -82.3225 48° Northeast 282 325 8,100 -600 Descending Cleveland Center
Mon 08:03:47 PM 41.1322 -82.2778 46° Northeast 273 314 7,900 -774 Descending Cleveland Center
Mon 08:04:09 PM 41.1525 -82.2472 49° Northeast 279 321 7,300 -1,574 Descending Cleveland Center
Mon 08:04:48 PM 41.1836 -82.2031 47° Northeast 272 313 6,300 -1,258 Descending Cleveland Center
Mon 08:05:11 PM 41.2019 -82.1769 47° Northeast 261 300 6,000 -984 Descending Cleveland Center
Mon 08:05:49 PM 41.2325 -82.1306 49° Northeast 249 287 5,300 -968 Descending Cleveland Center
Mon 08:06:13 PM 41.2494 -82.1075 46° Northeast 252 290 5,000 -1,000 Descending Cleveland Center
Mon 08:06:49 PM 41.2811 -82.0606 48° Northeast 252 290 4,300 -968 Descending Cleveland Center
Mon 08:07:15 PM 41.2964 -82.0372 49° Northeast 252 290 4,000 -984 Descending Cleveland Center
Mon 08:07:50 PM 41.3206 -82.0003 49° Northeast 208 239 3,300 -968 Descending Cleveland Center
Mon 08:08:17 PM 41.3317 -81.9806 53° Northeast 215 247 3,000 -822 Descending Cleveland Center
Mon 08:09:03 PM 41.3550 -81.9447 49° Northeast 134 154 2,300 -774 Descending Cleveland Center
Mon 08:09:19 PM 41.3589 -81.9392 47° Northeast 169 194 2,200 -750 Descending Cleveland Center
Mon 08:09:51 PM 41.3725 -81.9169 51° Northeast 128 147 1,700 -774 Descending Cleveland Center
Mon 08:10:21 PM 41.3828 -81.9000 51° Northeast 145 167 1,400 -689 Descending Cleveland Center
Mon 08:10:52 PM 41.3969 -81.8789 48° Northeast 133 153 1,000 -581 Descending Cleveland Center
Mon 08:11:23 PM 41.4092 -81.8581 52° Northeast 137 158 800 -387 Descending Cleveland Center

Login

Don't have an account? Register now (free) for customized features, flight alerts, and more!